createdAt,value
2022-08-27T00:03:11.369Z,8.20
2022-08-27T00:08:14.793Z,6.60
2022-08-27T00:13:17.373Z,7.88
2022-08-27T00:18:22.797Z,7.38
2022-08-27T00:23:25.459Z,7.85
2022-08-27T00:28:30.068Z,7.65
2022-08-27T00:33:32.769Z,7.57
2022-08-27T00:38:35.604Z,7.75
2022-08-27T00:44:04.133Z,8.27
2022-08-27T00:49:18.422Z,7.97
2022-08-27T00:54:21.775Z,7.65
2022-08-27T00:59:29.366Z,7.97
2022-08-27T01:04:34.951Z,7.57
2022-08-27T01:09:39.037Z,7.65
2022-08-27T01:14:42.213Z,7.43
2022-08-27T01:19:49.507Z,7.35
2022-08-27T01:24:55.322Z,9.90
2022-08-27T01:29:58.132Z,9.13
2022-08-27T01:35:01.982Z,8.93
2022-08-27T01:40:05.169Z,9.88
2022-08-27T01:45:09.619Z,8.27
2022-08-27T01:50:18.705Z,9.32
2022-08-27T01:55:25.177Z,9.38
2022-08-27T02:00:33.150Z,8.68
2022-08-27T02:05:39.329Z,7.03
2022-08-27T02:10:48.962Z,8.65
2022-08-27T02:15:51.433Z,8.35
2022-08-27T02:20:54.187Z,9.23
2022-08-27T02:25:56.680Z,9.07
2022-08-27T02:30:59.394Z,11.25
2022-08-27T02:36:01.867Z,9.60
2022-08-27T02:41:05.230Z,8.63
2022-08-27T02:46:07.775Z,9.55
2022-08-27T02:51:10.376Z,10.32
2022-08-27T02:56:13.021Z,10.50
2022-08-27T03:01:16.064Z,10.52
2022-08-27T03:06:18.677Z,10.20
2022-08-27T03:11:25.854Z,11.38
2022-08-27T03:16:28.457Z,11.45
2022-08-27T03:21:30.963Z,10.77
2022-08-27T03:26:34.599Z,11.38
2022-08-27T03:31:38.000Z,11.13
2022-08-27T03:36:40.481Z,11.30
2022-08-27T03:41:54.663Z,10.60
2022-08-27T03:46:58.323Z,11.70
2022-08-27T03:52:00.905Z,11.07
2022-08-27T03:57:03.783Z,10.98
2022-08-27T04:02:06.269Z,11.27
2022-08-27T04:07:10.721Z,11.50
2022-08-27T04:12:13.233Z,11.48
2022-08-27T04:17:16.409Z,11.25
2022-08-27T04:22:19.625Z,12.10
2022-08-27T04:27:22.844Z,11.27
2022-08-27T04:32:29.089Z,9.95
2022-08-27T04:37:33.368Z,13.13
2022-08-27T04:42:35.914Z,14.52
2022-08-27T04:47:38.512Z,10.82
2022-08-27T04:52:41.617Z,12.20
2022-08-27T04:57:44.134Z,10.02
2022-08-27T05:02:46.625Z,10.00
2022-08-27T05:07:49.299Z,11.88
2022-08-27T05:12:51.767Z,10.68
2022-08-27T05:17:54.536Z,11.57
2022-08-27T05:22:57.995Z,10.45
2022-08-27T05:28:00.670Z,12.40
2022-08-27T05:33:03.540Z,11.77
2022-08-27T05:38:06.142Z,10.23
2022-08-27T05:43:08.798Z,10.27
2022-08-27T05:48:12.269Z,10.30
2022-08-27T05:53:14.935Z,10.00
2022-08-27T05:58:35.895Z,10.25
2022-08-27T06:03:39.096Z,10.95
2022-08-27T06:08:42.132Z,9.77
2022-08-27T06:13:44.614Z,10.32
2022-08-27T06:18:48.948Z,9.10
2022-08-27T06:23:51.569Z,9.45
2022-08-27T06:28:54.356Z,10.65
2022-08-27T06:34:03.058Z,11.30
2022-08-27T06:39:13.982Z,11.15
2022-08-27T06:44:16.608Z,9.52
2022-08-27T06:49:19.568Z,11.10
2022-08-27T06:54:22.211Z,11.35
2022-08-27T06:59:25.317Z,10.93
2022-08-27T07:04:32.040Z,11.02
2022-08-27T07:09:35.405Z,11.80
2022-08-27T07:14:38.507Z,11.48
2022-08-27T07:19:41.526Z,11.95
2022-08-27T07:24:44.254Z,11.43
2022-08-27T07:29:46.856Z,12.05
2022-08-27T07:34:50.024Z,11.57
2022-08-27T07:39:52.686Z,12.85
2022-08-27T07:44:55.306Z,11.38
2022-08-27T07:49:59.243Z,10.40
2022-08-27T07:55:01.746Z,9.00
2022-08-27T08:00:06.685Z,8.20
2022-08-27T08:05:16.913Z,8.75
2022-08-27T08:10:23.616Z,8.35
2022-08-27T08:15:26.265Z,8.43
2022-08-27T08:20:54.309Z,8.40
2022-08-27T08:25:51.482Z,8.35
2022-08-27T08:30:54.981Z,7.50
2022-08-27T08:36:12.850Z,7.38
2022-08-27T08:41:41.622Z,7.75
2022-08-27T08:46:51.331Z,8.13
2022-08-27T08:51:56.533Z,6.60
2022-08-27T08:57:21.096Z,7.47
2022-08-27T09:02:24.020Z,6.90
2022-08-27T09:08:31.813Z,6.40
2022-08-27T09:13:55.720Z,6.60
2022-08-27T09:18:58.303Z,7.53
2022-08-27T09:24:15.499Z,8.38
2022-08-27T09:29:20.465Z,6.88
2022-08-27T09:34:23.847Z,7.75
2022-08-27T09:39:49.225Z,6.63
2022-08-27T09:44:55.847Z,6.47
2022-08-27T09:50:06.827Z,6.38
2022-08-27T09:55:10.348Z,5.35
2022-08-27T10:00:17.941Z,5.90
2022-08-27T10:05:34.024Z,5.40
2022-08-27T10:10:57.124Z,5.35
2022-08-27T10:16:21.167Z,5.43
2022-08-27T10:21:33.396Z,5.68
2022-08-27T10:27:05.465Z,5.18
2022-08-27T10:32:18.608Z,5.15
2022-08-27T10:37:43.567Z,5.40
2022-08-27T10:43:25.690Z,5.85
2022-08-27T10:48:44.944Z,5.25
2022-08-27T10:53:47.382Z,5.03
2022-08-27T10:58:58.756Z,5.78
2022-08-27T11:04:13.106Z,5.13
2022-08-27T11:09:27.107Z,4.68
2022-08-27T11:14:32.408Z,4.82
2022-08-27T11:19:56.164Z,5.40
2022-08-27T11:25:28.544Z,4.70
2022-08-27T11:30:49.320Z,5.15
2022-08-27T11:36:09.724Z,5.50
2022-08-27T11:41:44.810Z,6.35
2022-08-27T11:46:51.105Z,5.32
2022-08-27T11:51:59.224Z,5.28
2022-08-27T11:57:01.754Z,5.82
2022-08-27T12:02:26.262Z,5.32
2022-08-27T12:07:31.997Z,5.30
2022-08-27T12:12:43.713Z,5.22
2022-08-27T12:18:14.547Z,6.07
2022-08-27T12:23:40.392Z,5.28
2022-08-27T12:28:43.894Z,5.90
2022-08-27T12:33:48.201Z,5.63
2022-08-27T12:38:53.831Z,5.43
2022-08-27T12:44:11.392Z,5.07
2022-08-27T12:49:37.833Z,6.28
2022-08-27T12:54:46.867Z,7.00
2022-08-27T13:00:19.781Z,5.65
2022-08-27T13:05:40.287Z,6.10
2022-08-27T13:10:42.902Z,6.85
2022-08-27T13:15:51.364Z,5.90
2022-08-27T13:21:02.792Z,6.75
2022-08-27T13:26:10.457Z,6.30
2022-08-27T13:31:13.157Z,5.82
2022-08-27T13:36:31.030Z,6.30
2022-08-27T13:41:38.718Z,5.47
2022-08-27T13:46:47.878Z,5.07
2022-08-27T13:51:59.511Z,5.65
2022-08-27T13:57:08.948Z,6.13
2022-08-27T14:02:11.838Z,5.60
2022-08-27T14:07:20.537Z,7.20
2022-08-27T14:12:33.184Z,13.55
2022-08-27T14:17:38.446Z,6.78
2022-08-27T14:22:41.207Z,6.47
2022-08-27T14:27:54.491Z,5.90
2022-08-27T14:32:58.816Z,5.72
2022-08-27T14:38:30.396Z,6.65
2022-08-27T14:43:34.834Z,7.68
2022-08-27T14:48:37.819Z,7.47
2022-08-27T14:53:40.309Z,7.35
2022-08-27T14:58:42.890Z,7.20
2022-08-27T15:03:49.129Z,6.05
2022-08-27T15:08:52.292Z,5.83
2022-08-27T15:13:56.348Z,6.40
2022-08-27T15:19:00.632Z,7.95
2022-08-27T15:24:08.019Z,5.80
2022-08-27T15:29:10.847Z,5.32
2022-08-27T15:34:13.938Z,5.25
2022-08-27T15:39:16.768Z,4.88
2022-08-27T15:44:19.265Z,5.07
2022-08-27T15:49:21.969Z,5.00
2022-08-27T15:54:24.530Z,6.63
2022-08-27T15:59:27.757Z,4.50
2022-08-27T16:04:30.268Z,4.20
2022-08-27T16:09:32.839Z,4.70
2022-08-27T16:14:35.330Z,5.07
2022-08-27T16:19:39.178Z,5.80
2022-08-27T16:24:41.697Z,4.97
2022-08-27T16:29:44.227Z,4.63
2022-08-27T16:34:55.840Z,5.00
2022-08-27T16:39:58.743Z,4.68
2022-08-27T16:45:02.127Z,5.07
2022-08-27T16:50:26.257Z,4.32
2022-08-27T16:55:28.874Z,4.97
2022-08-27T17:00:32.418Z,4.60
2022-08-27T17:05:35.256Z,4.45
2022-08-27T17:10:46.475Z,4.25
2022-08-27T17:15:52.867Z,5.32
2022-08-27T17:20:56.451Z,5.13
2022-08-27T17:25:58.880Z,4.80
2022-08-27T17:31:02.606Z,5.95
2022-08-27T17:36:07.257Z,5.25
2022-08-27T17:41:13.487Z,5.85
2022-08-27T17:46:16.105Z,5.88
2022-08-27T17:51:20.272Z,5.80
2022-08-27T17:56:23.910Z,6.10
2022-08-27T18:01:29.817Z,6.15
2022-08-27T18:06:32.298Z,5.95
2022-08-27T18:11:35.113Z,6.22
2022-08-27T18:16:38.626Z,5.90
2022-08-27T18:21:46.224Z,6.13
2022-08-27T18:26:49.623Z,5.78
2022-08-27T18:31:52.098Z,10.77
2022-08-27T18:36:54.660Z,19.40
2022-08-27T18:41:57.263Z,8.85
2022-08-27T18:46:59.772Z,8.48
2022-08-27T18:52:02.440Z,10.32
2022-08-27T18:57:04.868Z,9.23
2022-08-27T19:02:08.612Z,9.13
2022-08-27T19:07:11.374Z,11.18
2022-08-27T19:12:14.873Z,7.65
2022-08-27T19:17:26.161Z,7.43
2022-08-27T19:22:30.793Z,7.50
2022-08-27T19:27:33.343Z,7.40
2022-08-27T19:32:35.821Z,6.97
2022-08-27T19:37:43.000Z,7.43
2022-08-27T19:42:45.679Z,7.05
2022-08-27T19:47:48.237Z,7.88
2022-08-27T19:52:51.562Z,9.43
2022-08-27T19:57:53.978Z,10.95
2022-08-27T20:02:56.890Z,10.90
2022-08-27T20:07:59.414Z,8.50
2022-08-27T20:13:01.858Z,8.10
2022-08-27T20:18:05.793Z,8.95
2022-08-27T20:23:08.651Z,8.00
2022-08-27T20:28:37.378Z,7.95
2022-08-27T20:33:34.295Z,8.35
2022-08-27T20:38:37.029Z,9.23
2022-08-27T20:43:39.700Z,23.08
2022-08-27T20:48:42.179Z,11.68
2022-08-27T20:53:44.791Z,8.25
2022-08-27T20:59:06.123Z,8.77
2022-08-27T21:04:08.605Z,8.30
2022-08-27T21:09:11.075Z,8.10
2022-08-27T21:14:16.045Z,12.38
2022-08-27T21:19:18.540Z,9.68
2022-08-27T21:24:21.283Z,9.13
2022-08-27T21:29:23.866Z,9.95
2022-08-27T21:34:28.270Z,11.32
2022-08-27T21:39:32.831Z,10.85
2022-08-27T21:44:36.025Z,11.75
2022-08-27T21:49:38.660Z,11.82
2022-08-27T21:54:42.225Z,11.32
2022-08-27T21:59:48.059Z,12.52
2022-08-27T22:04:51.540Z,12.02
2022-08-27T22:09:54.292Z,12.18
2022-08-27T22:14:56.768Z,13.57
2022-08-27T22:19:59.233Z,12.15
2022-08-27T22:25:01.640Z,12.95
2022-08-27T22:30:09.609Z,12.65
2022-08-27T22:35:15.138Z,13.25
2022-08-27T22:40:20.369Z,13.30
2022-08-27T22:45:23.081Z,14.38
2022-08-27T22:50:25.879Z,13.68
2022-08-27T22:55:28.794Z,13.75
2022-08-27T23:00:36.358Z,14.38
2022-08-27T23:05:41.388Z,15.55
2022-08-27T23:10:45.005Z,15.15
2022-08-27T23:15:47.568Z,14.00
2022-08-27T23:20:50.284Z,15.98
2022-08-27T23:26:11.258Z,15.10
2022-08-27T23:31:14.503Z,15.80
2022-08-27T23:36:16.991Z,15.48
2022-08-27T23:41:19.592Z,15.43
2022-08-27T23:46:22.017Z,16.15
2022-08-27T23:51:25.523Z,16.67
2022-08-27T23:56:30.177Z,17.63
